createdAt,value
2019-05-11T00:00:22.617Z,39.88
2019-05-11T00:01:27.234Z,43.65
2019-05-11T00:02:31.868Z,35.70
2019-05-11T00:03:36.384Z,34.00
2019-05-11T00:04:40.999Z,33.20
2019-05-11T00:05:45.545Z,31.25
2019-05-11T00:06:50.093Z,30.40
2019-05-11T00:07:54.792Z,34.35
2019-05-11T00:08:59.369Z,27.30
2019-05-11T00:10:04.626Z,34.03
2019-05-11T00:11:09.302Z,32.20
2019-05-11T00:12:13.871Z,26.25
2019-05-11T00:13:18.432Z,28.55
2019-05-11T00:14:22.981Z,28.98
2019-05-11T00:15:27.564Z,26.68
2019-05-11T00:16:32.198Z,28.05
2019-05-11T00:17:36.743Z,27.10
2019-05-11T00:18:41.309Z,30.37
2019-05-11T00:19:45.813Z,30.60
2019-05-11T00:20:50.465Z,29.57
2019-05-11T00:21:55.059Z,32.95
2019-05-11T00:22:59.586Z,33.80
2019-05-11T00:24:04.109Z,35.88
2019-05-11T00:25:08.983Z,30.77
2019-05-11T00:26:13.569Z,36.13
2019-05-11T00:27:18.086Z,29.77
2019-05-11T00:28:22.591Z,34.00
2019-05-11T00:29:27.126Z,26.25
2019-05-11T00:30:31.694Z,29.32
2019-05-11T00:32:31.887Z,31.90
2019-05-11T00:33:36.476Z,30.92
2019-05-11T00:34:41.008Z,33.05
2019-05-11T00:35:45.551Z,37.53
2019-05-11T00:36:50.102Z,41.73
2019-05-11T00:37:54.602Z,42.38
2019-05-11T00:38:59.134Z,44.73
2019-05-11T00:40:13.881Z,43.80
2019-05-11T00:41:09.926Z,46.33
2019-05-11T00:42:14.500Z,37.20
2019-05-11T00:43:19.101Z,43.60
2019-05-11T00:44:23.630Z,39.30
2019-05-11T00:45:28.335Z,32.03
2019-05-11T00:46:32.865Z,33.13
2019-05-11T00:47:37.430Z,36.58
2019-05-11T00:48:42.044Z,39.23
2019-05-11T00:49:46.698Z,40.10
2019-05-11T00:50:51.300Z,36.80
2019-05-11T00:51:55.826Z,40.35
2019-05-11T00:53:00.380Z,37.63
2019-05-11T00:54:05.006Z,44.63
2019-05-11T00:55:10.275Z,39.92
2019-05-11T00:56:14.779Z,40.28
2019-05-11T00:57:19.305Z,34.53
2019-05-11T00:58:23.901Z,34.27
2019-05-11T00:59:28.395Z,39.63
2019-05-11T01:00:32.899Z,39.40
2019-05-11T01:01:37.449Z,41.68
2019-05-11T01:02:42.029Z,38.30
2019-05-11T01:03:46.585Z,38.08
2019-05-11T01:04:51.149Z,38.42
2019-05-11T01:05:56.133Z,42.65
2019-05-11T01:07:00.723Z,44.15
2019-05-11T01:08:05.279Z,38.00
2019-05-11T01:09:09.879Z,36.45
2019-05-11T01:10:23.679Z,34.35
2019-05-11T01:11:20.708Z,34.20
2019-05-11T01:12:25.281Z,36.23
2019-05-11T01:13:29.820Z,36.83
2019-05-11T01:14:34.326Z,38.65
2019-05-11T01:15:38.843Z,35.30
2019-05-11T01:16:43.394Z,36.95
2019-05-11T01:17:47.960Z,38.53
2019-05-11T01:18:53.719Z,51.98
2019-05-11T01:19:59.571Z,42.80
2019-05-11T01:21:04.223Z,50.10
2019-05-11T01:22:08.909Z,45.88
2019-05-11T01:23:13.543Z,39.92
2019-05-11T01:24:18.056Z,37.90
2019-05-11T01:25:22.636Z,45.45
2019-05-11T01:26:27.292Z,43.17
2019-05-11T01:27:31.816Z,42.13
2019-05-11T01:28:36.334Z,44.40
2019-05-11T01:29:40.858Z,45.55
2019-05-11T01:30:45.439Z,41.77
2019-05-11T01:31:50.118Z,42.43
2019-05-11T01:32:54.763Z,38.40
2019-05-11T01:33:59.275Z,43.40
2019-05-11T01:35:03.855Z,42.58
2019-05-11T01:36:08.404Z,41.63
2019-05-11T01:37:13.009Z,38.65
2019-05-11T01:38:17.531Z,37.53
2019-05-11T01:39:22.015Z,36.30
2019-05-11T01:40:26.587Z,46.83
2019-05-11T01:41:31.155Z,40.05
2019-05-11T01:42:35.827Z,38.25
2019-05-11T01:43:40.373Z,40.15
2019-05-11T01:44:44.957Z,43.63
2019-05-11T01:45:49.557Z,45.12
2019-05-11T01:46:54.163Z,41.92
2019-05-11T01:47:58.697Z,41.48
2019-05-11T01:49:03.346Z,35.03
2019-05-11T01:50:08.140Z,39.65
2019-05-11T01:51:12.674Z,41.75
2019-05-11T01:52:17.244Z,39.90
2019-05-11T01:53:21.765Z,42.45
2019-05-11T01:54:26.553Z,40.23
2019-05-11T01:55:31.039Z,37.88
2019-05-11T01:56:35.535Z,33.80
2019-05-11T01:57:40.023Z,31.97
2019-05-11T01:58:44.524Z,31.40
2019-05-11T01:59:49.024Z,34.58
2019-05-11T02:00:53.535Z,40.67
2019-05-11T02:01:58.062Z,36.60
2019-05-11T02:03:03.718Z,34.50
2019-05-11T02:04:08.538Z,34.70
2019-05-11T02:05:29.153Z,33.88
2019-05-11T02:06:33.730Z,34.73
2019-05-11T02:07:38.248Z,38.50
2019-05-11T02:08:42.758Z,34.33
2019-05-11T02:09:47.252Z,42.08
2019-05-11T02:10:51.764Z,41.42
2019-05-11T02:11:56.361Z,42.43
2019-05-11T02:13:02.099Z,36.95
2019-05-11T02:14:06.716Z,31.52
2019-05-11T02:15:11.532Z,38.05
2019-05-11T02:16:16.041Z,37.85
2019-05-11T02:17:20.531Z,37.42
2019-05-11T02:18:25.114Z,38.40
2019-05-11T02:19:29.628Z,39.63
2019-05-11T02:20:34.158Z,39.85
2019-05-11T02:21:38.664Z,41.65
2019-05-11T02:22:43.173Z,40.73
2019-05-11T02:23:47.756Z,45.52
2019-05-11T02:24:52.241Z,51.13
2019-05-11T02:25:56.727Z,39.23
2019-05-11T02:27:01.603Z,38.78
2019-05-11T02:28:06.173Z,44.70
2019-05-11T02:29:10.682Z,38.30
2019-05-11T02:30:17.043Z,41.80
2019-05-11T02:31:21.574Z,43.23
2019-05-11T02:32:26.240Z,35.40
2019-05-11T02:33:30.794Z,45.25
2019-05-11T02:34:35.379Z,35.70
2019-05-11T02:35:40.146Z,40.20
2019-05-11T02:36:44.746Z,35.55
2019-05-11T02:37:49.349Z,37.15
2019-05-11T02:38:53.852Z,38.70
2019-05-11T02:39:58.392Z,33.67
2019-05-11T02:41:02.959Z,43.15
2019-05-11T02:42:07.895Z,34.30
2019-05-11T02:43:12.495Z,39.90
2019-05-11T02:44:17.084Z,31.77
2019-05-11T02:45:38.915Z,35.92
2019-05-11T02:46:43.420Z,32.53
2019-05-11T02:47:48.010Z,29.80
2019-05-11T02:48:52.585Z,29.65
2019-05-11T02:49:57.217Z,29.80
2019-05-11T02:51:02.160Z,32.13
2019-05-11T02:52:07.254Z,29.75
2019-05-11T02:53:11.765Z,33.33
2019-05-11T02:54:16.411Z,30.92
2019-05-11T02:55:21.031Z,32.80
2019-05-11T02:56:25.535Z,27.65
2019-05-11T02:57:30.183Z,27.75
2019-05-11T02:58:34.692Z,26.52
2019-05-11T02:59:39.226Z,30.50
2019-05-11T03:00:45.181Z,34.23
2019-05-11T03:01:49.837Z,24.30
2019-05-11T03:02:54.428Z,26.17
2019-05-11T03:03:58.928Z,29.95
2019-05-11T03:05:03.491Z,25.88
2019-05-11T03:06:08.083Z,30.82
2019-05-11T03:07:13.598Z,25.85
2019-05-11T03:08:19.156Z,28.47
2019-05-11T03:09:26.465Z,32.17
2019-05-11T03:10:31.105Z,26.02
2019-05-11T03:11:53.650Z,32.17
2019-05-11T03:12:41.892Z,29.20
2019-05-11T03:13:46.371Z,33.90
2019-05-11T03:14:50.848Z,26.80
2019-05-11T03:15:55.681Z,26.82
2019-05-11T03:17:13.978Z,28.50
2019-05-11T03:18:18.669Z,33.02
2019-05-11T03:19:23.159Z,26.75
2019-05-11T03:20:27.721Z,26.02
2019-05-11T03:21:32.242Z,28.85
2019-05-11T03:22:37.596Z,32.53
2019-05-11T03:23:42.082Z,29.75
2019-05-11T03:24:46.637Z,35.43
2019-05-11T03:25:51.125Z,28.17
2019-05-11T03:26:55.653Z,29.42
2019-05-11T03:28:00.196Z,25.97
2019-05-11T03:29:04.749Z,30.23
2019-05-11T03:30:09.477Z,30.00
2019-05-11T03:31:14.122Z,31.50
2019-05-11T03:32:18.753Z,33.30
2019-05-11T03:33:23.309Z,29.20
2019-05-11T03:34:27.889Z,32.83
2019-05-11T03:35:32.436Z,33.42
2019-05-11T03:36:36.950Z,29.50
2019-05-11T03:37:41.537Z,34.50
2019-05-11T03:38:46.149Z,36.85
2019-05-11T03:39:50.716Z,33.92
2019-05-11T03:40:55.316Z,31.85
2019-05-11T03:42:14.083Z,28.62
2019-05-11T03:43:06.067Z,33.00
2019-05-11T03:44:10.673Z,35.00
2019-05-11T03:45:15.587Z,29.72
2019-05-11T03:46:20.123Z,31.40
2019-05-11T03:47:24.721Z,27.35
2019-05-11T03:48:29.235Z,30.80
2019-05-11T03:49:33.717Z,33.30
2019-05-11T03:50:38.209Z,24.63
2019-05-11T03:51:42.745Z,30.02
2019-05-11T03:52:47.428Z,30.27
2019-05-11T03:53:51.933Z,30.27
2019-05-11T03:54:56.451Z,28.07
2019-05-11T03:56:01.132Z,31.60
2019-05-11T03:57:05.741Z,29.52
2019-05-11T03:58:10.409Z,31.40
2019-05-11T03:59:14.979Z,32.67
2019-05-11T04:00:20.849Z,31.52
2019-05-11T04:01:26.654Z,28.60
2019-05-11T04:02:31.190Z,22.90
2019-05-11T04:03:35.704Z,26.40
2019-05-11T04:04:40.358Z,18.67
2019-05-11T04:05:45.068Z,23.57
2019-05-11T04:06:49.587Z,21.95
2019-05-11T04:07:54.072Z,22.75
2019-05-11T04:08:58.670Z,23.45
2019-05-11T04:10:03.277Z,17.92
2019-05-11T04:11:07.924Z,23.47
2019-05-11T04:12:12.535Z,21.33
2019-05-11T04:13:17.053Z,23.50
2019-05-11T04:14:21.587Z,19.92
2019-05-11T04:15:26.119Z,22.35
2019-05-11T04:16:30.620Z,15.70
2019-05-11T04:17:35.165Z,18.45
2019-05-11T04:18:39.715Z,14.85
2019-05-11T04:19:44.238Z,18.60
2019-05-11T04:20:48.909Z,15.88
2019-05-11T04:21:53.537Z,18.15
2019-05-11T04:22:58.090Z,13.65
2019-05-11T04:24:03.396Z,18.77
2019-05-11T04:25:08.075Z,18.23
2019-05-11T04:26:12.733Z,21.00
2019-05-11T04:27:19.705Z,23.73
2019-05-11T04:28:23.474Z,21.83
2019-05-11T04:29:28.001Z,15.77
2019-05-11T04:30:32.505Z,17.20
2019-05-11T04:31:37.018Z,17.90
2019-05-11T04:32:41.571Z,16.90
2019-05-11T04:33:46.083Z,16.73
2019-05-11T04:34:50.644Z,18.80
2019-05-11T04:35:55.336Z,20.07
2019-05-11T04:36:59.984Z,19.63
2019-05-11T04:38:04.629Z,19.30
2019-05-11T04:39:09.121Z,15.27
2019-05-11T04:40:13.947Z,17.43
2019-05-11T04:41:18.627Z,15.57
2019-05-11T04:42:23.336Z,17.17
2019-05-11T04:43:27.914Z,12.27
2019-05-11T04:44:32.431Z,17.77
2019-05-11T04:45:37.019Z,11.67
2019-05-11T04:46:41.664Z,12.90
2019-05-11T04:47:46.154Z,18.23
2019-05-11T04:48:50.659Z,15.00
2019-05-11T04:49:55.340Z,15.47
2019-05-11T04:51:00.041Z,12.87
2019-05-11T04:52:04.687Z,13.63
2019-05-11T04:53:09.205Z,14.50
2019-05-11T04:54:13.818Z,14.43
2019-05-11T04:55:18.633Z,16.33
2019-05-11T04:56:23.130Z,16.43
2019-05-11T04:57:27.640Z,16.57
2019-05-11T04:58:34.094Z,11.13
2019-05-11T04:59:38.451Z,14.50
2019-05-11T05:00:42.973Z,13.70
2019-05-11T05:01:47.509Z,18.70
2019-05-11T05:02:52.057Z,19.77
2019-05-11T05:04:12.994Z,15.70
2019-05-11T05:05:03.008Z,13.07
2019-05-11T05:06:21.741Z,13.97
2019-05-11T05:07:16.559Z,14.30
2019-05-11T05:08:21.332Z,12.67
2019-05-11T05:09:26.655Z,18.00
2019-05-11T05:10:31.283Z,13.53
2019-05-11T05:11:36.654Z,11.90
2019-05-11T05:12:50.798Z,11.93
2019-05-11T05:13:48.285Z,14.40
2019-05-11T05:14:52.808Z,11.17
2019-05-11T05:15:57.348Z,12.93
2019-05-11T05:17:01.871Z,13.60
2019-05-11T05:18:06.385Z,13.43
2019-05-11T05:19:10.884Z,13.87
2019-05-11T05:20:15.679Z,15.53
2019-05-11T05:21:20.276Z,12.40
2019-05-11T05:22:27.888Z,9.00
2019-05-11T05:23:31.156Z,10.33
2019-05-11T05:24:35.701Z,12.23
2019-05-11T05:25:40.223Z,12.97
2019-05-11T05:26:44.762Z,12.87
2019-05-11T05:27:49.248Z,11.60
2019-05-11T05:28:53.760Z,12.47
2019-05-11T05:29:58.364Z,12.23
2019-05-11T05:31:02.963Z,11.00
2019-05-11T05:32:07.549Z,9.20
2019-05-11T05:33:12.112Z,15.73
2019-05-11T05:34:16.609Z,9.53
2019-05-11T05:35:21.142Z,11.33
2019-05-11T05:36:25.717Z,13.67
2019-05-11T05:37:30.344Z,17.97
2019-05-11T05:38:34.920Z,10.53
2019-05-11T05:39:39.398Z,14.43
2019-05-11T05:40:43.924Z,12.80
2019-05-11T05:41:56.655Z,16.33
2019-05-11T05:42:54.717Z,14.43
2019-05-11T05:43:59.202Z,13.70
2019-05-11T05:45:03.836Z,11.37
2019-05-11T05:46:08.533Z,13.20
2019-05-11T05:47:13.043Z,13.87
2019-05-11T05:48:17.520Z,8.93
2019-05-11T05:49:22.168Z,16.63
2019-05-11T05:50:26.660Z,11.53
2019-05-11T05:51:31.170Z,9.77
2019-05-11T05:52:35.684Z,15.20
2019-05-11T05:53:40.191Z,10.93
2019-05-11T05:54:44.836Z,11.60
2019-05-11T05:55:49.383Z,11.40
2019-05-11T05:56:53.978Z,9.07
2019-05-11T05:57:58.571Z,12.17
2019-05-11T05:59:03.088Z,13.03
2019-05-11T06:00:08.219Z,17.27
2019-05-11T06:01:12.725Z,13.63
2019-05-11T06:02:17.247Z,12.13
2019-05-11T06:03:21.759Z,10.37
2019-05-11T06:04:26.343Z,9.57
2019-05-11T06:05:30.890Z,10.43
2019-05-11T06:06:35.473Z,28.53
2019-05-11T06:07:39.992Z,16.83
2019-05-11T06:08:44.577Z,17.07
2019-05-11T06:09:49.130Z,18.30
2019-05-11T06:10:53.644Z,16.10
2019-05-11T06:11:58.218Z,12.03
2019-05-11T06:13:02.731Z,21.77
2019-05-11T06:14:07.215Z,25.07
2019-05-11T06:15:12.940Z,17.77
2019-05-11T06:16:17.445Z,17.67
2019-05-11T06:17:21.946Z,13.90
2019-05-11T06:18:26.472Z,26.10
2019-05-11T06:19:30.992Z,40.43
2019-05-11T06:20:35.505Z,29.77
2019-05-11T06:21:39.996Z,22.80
2019-05-11T06:22:44.558Z,13.57
2019-05-11T06:23:49.056Z,24.00
2019-05-11T06:24:53.843Z,22.67
2019-05-11T06:25:58.399Z,16.93
2019-05-11T06:27:02.958Z,14.73
2019-05-11T06:28:07.431Z,19.43
2019-05-11T06:29:11.922Z,26.17
2019-05-11T06:30:16.944Z,15.53
2019-05-11T06:31:21.497Z,17.53
2019-05-11T06:32:25.988Z,9.30
2019-05-11T06:33:30.497Z,15.50
2019-05-11T06:34:35.140Z,16.80
2019-05-11T06:35:39.688Z,37.07
2019-05-11T06:36:44.251Z,37.13
2019-05-11T06:37:48.861Z,42.60
2019-05-11T06:38:53.424Z,20.90
2019-05-11T06:39:58.038Z,21.03
2019-05-11T06:41:02.671Z,7.63
2019-05-11T06:42:08.100Z,12.83
2019-05-11T06:43:12.592Z,35.60
2019-05-11T06:44:17.104Z,14.97
2019-05-11T06:45:21.754Z,12.43
2019-05-11T06:46:26.442Z,9.43
2019-05-11T06:47:31.197Z,17.43
2019-05-11T06:48:35.691Z,28.40
2019-05-11T06:49:40.291Z,15.20
2019-05-11T06:50:44.806Z,19.00
2019-05-11T06:51:49.405Z,23.97
2019-05-11T06:52:53.898Z,12.67
2019-05-11T06:53:58.423Z,12.63
2019-05-11T06:55:03.181Z,14.47
2019-05-11T06:56:07.883Z,23.20
2019-05-11T06:57:12.408Z,21.70
2019-05-11T06:58:16.925Z,24.23
2019-05-11T06:59:21.510Z,18.10
2019-05-11T07:00:26.292Z,15.13
2019-05-11T07:01:30.989Z,15.50
2019-05-11T07:02:35.567Z,23.37
2019-05-11T07:03:40.044Z,10.80
2019-05-11T07:04:44.613Z,38.67
2019-05-11T07:05:49.116Z,24.03
2019-05-11T07:06:53.644Z,19.20
2019-05-11T07:07:58.216Z,26.07
2019-05-11T07:09:02.867Z,10.00
2019-05-11T07:10:07.673Z,14.80
2019-05-11T07:11:12.174Z,46.03
2019-05-11T07:12:16.951Z,46.10
2019-05-11T07:13:21.684Z,19.80
2019-05-11T07:14:26.195Z,15.97
2019-05-11T07:15:30.744Z,14.43
2019-05-11T07:16:35.266Z,10.73
2019-05-11T07:17:39.765Z,8.27
2019-05-11T07:18:46.858Z,8.20
2019-05-11T07:19:51.527Z,9.20
2019-05-11T07:20:56.015Z,17.03
2019-05-11T07:22:00.531Z,13.60
2019-05-11T07:23:05.103Z,13.80
2019-05-11T07:24:09.603Z,9.40
2019-05-11T07:25:14.187Z,11.37
2019-05-11T07:26:18.757Z,17.17
2019-05-11T07:27:23.316Z,8.00
2019-05-11T07:28:27.805Z,24.23
2019-05-11T07:29:32.291Z,23.20
2019-05-11T07:30:36.903Z,11.47
2019-05-11T07:31:41.380Z,18.57
2019-05-11T07:32:47.941Z,14.67
2019-05-11T07:33:52.068Z,9.00
2019-05-11T07:34:57.755Z,12.67
2019-05-11T07:36:02.476Z,10.93
2019-05-11T07:37:08.250Z,9.60
2019-05-11T07:38:12.939Z,11.30
2019-05-11T07:39:18.672Z,16.13
2019-05-11T07:40:23.411Z,11.67
2019-05-11T07:41:28.249Z,11.67
2019-05-11T07:42:32.904Z,12.53
2019-05-11T07:43:38.153Z,9.30
2019-05-11T07:44:42.986Z,9.13
2019-05-11T07:45:48.088Z,20.43
2019-05-11T07:46:52.648Z,23.93
2019-05-11T07:47:58.999Z,23.00
2019-05-11T07:49:03.541Z,10.53
2019-05-11T07:50:08.610Z,9.43
2019-05-11T07:51:13.200Z,13.10
2019-05-11T07:52:18.259Z,16.73
2019-05-11T07:53:23.141Z,11.10
2019-05-11T07:54:28.198Z,8.67
2019-05-11T07:55:32.974Z,7.47
2019-05-11T07:56:39.052Z,10.23
2019-05-11T07:57:43.716Z,21.17
2019-05-11T07:58:48.311Z,28.37
2019-05-11T07:59:52.895Z,16.77
2019-05-11T08:00:58.181Z,16.77
2019-05-11T08:02:02.973Z,22.87
2019-05-11T08:03:09.002Z,27.70
2019-05-11T08:04:13.839Z,18.00
2019-05-11T08:05:18.433Z,23.13
2019-05-11T08:06:23.144Z,10.40
2019-05-11T08:07:28.494Z,9.57
2019-05-11T08:08:33.382Z,12.40
2019-05-11T08:09:38.213Z,8.57
2019-05-11T08:10:42.723Z,16.67
2019-05-11T08:11:47.884Z,12.10
2019-05-11T08:12:52.582Z,12.37
2019-05-11T08:14:00.316Z,12.27
2019-05-11T08:15:11.708Z,9.10
2019-05-11T08:16:11.398Z,9.80
2019-05-11T08:17:18.502Z,11.10
2019-05-11T08:18:22.173Z,10.40
2019-05-11T08:19:28.268Z,9.67
2019-05-11T08:20:33.036Z,7.17
2019-05-11T08:21:38.868Z,14.27
2019-05-11T08:22:43.589Z,9.23
2019-05-11T08:23:48.496Z,8.50
2019-05-11T08:24:53.266Z,12.03
2019-05-11T08:25:58.215Z,13.50
2019-05-11T08:27:03.513Z,50.07
2019-05-11T08:28:11.905Z,11.23
2019-05-11T08:29:14.486Z,13.33
2019-05-11T08:30:19.465Z,7.40
2019-05-11T08:31:23.985Z,11.97
2019-05-11T08:32:28.821Z,10.13
2019-05-11T08:33:33.650Z,6.50
2019-05-11T08:34:39.785Z,7.77
2019-05-11T08:35:44.592Z,7.83
2019-05-11T08:36:49.115Z,9.43
2019-05-11T08:37:53.692Z,6.40
2019-05-11T08:38:58.721Z,10.97
2019-05-11T08:40:03.461Z,10.53
2019-05-11T08:41:08.246Z,10.73
2019-05-11T08:42:12.989Z,8.13
2019-05-11T08:43:18.027Z,6.50
2019-05-11T08:44:22.828Z,12.87
2019-05-11T08:45:28.103Z,11.60
2019-05-11T08:46:32.828Z,7.60
2019-05-11T08:47:37.852Z,10.07
2019-05-11T08:48:42.589Z,12.80
2019-05-11T08:49:48.461Z,19.40
2019-05-11T08:50:53.280Z,9.47
2019-05-11T08:51:58.038Z,36.57
2019-05-11T08:53:02.804Z,47.33
2019-05-11T08:54:09.025Z,11.30
2019-05-11T08:55:13.861Z,13.57
2019-05-11T08:56:18.979Z,10.17
2019-05-11T08:57:23.708Z,7.70
2019-05-11T08:58:28.235Z,6.90
2019-05-11T08:59:32.809Z,21.20
2019-05-11T09:00:38.947Z,17.97
2019-05-11T09:01:44.741Z,9.43
2019-05-11T09:02:50.723Z,7.03
2019-05-11T09:03:57.687Z,8.57
2019-05-11T09:05:01.819Z,6.67
2019-05-11T09:06:08.417Z,12.40
2019-05-11T09:07:12.579Z,9.83
2019-05-11T09:08:18.771Z,6.70
2019-05-11T09:09:23.514Z,9.17
2019-05-11T09:10:28.383Z,9.33
2019-05-11T09:11:33.012Z,9.23
2019-05-11T09:12:38.278Z,16.40
2019-05-11T09:13:42.996Z,20.67
2019-05-11T09:14:47.958Z,22.90
2019-05-11T09:15:52.608Z,7.50
2019-05-11T09:16:57.762Z,8.03
2019-05-11T09:18:02.696Z,12.37
2019-05-11T09:19:08.813Z,9.77
2019-05-11T09:20:13.701Z,4.93
2019-05-11T09:21:19.045Z,8.87
2019-05-11T09:22:23.929Z,29.20
2019-05-11T09:23:34.443Z,10.10
2019-05-11T09:24:34.638Z,10.33
2019-05-11T09:25:39.166Z,27.73
2019-05-11T09:26:43.868Z,18.10
2019-05-11T09:27:48.524Z,7.70
2019-05-11T09:28:53.193Z,8.20
2019-05-11T09:29:58.779Z,7.63
2019-05-11T09:31:03.717Z,8.23
2019-05-11T09:32:08.808Z,9.87
2019-05-11T09:33:13.702Z,6.77
2019-05-11T09:34:18.303Z,7.53
2019-05-11T09:35:23.182Z,8.33
2019-05-11T09:36:28.543Z,4.70
2019-05-11T09:37:33.365Z,8.20
2019-05-11T09:38:38.449Z,5.43
2019-05-11T09:39:43.190Z,6.87
2019-05-11T09:40:48.110Z,5.80
2019-05-11T09:41:52.707Z,5.40
2019-05-11T09:42:58.514Z,10.27
2019-05-11T09:44:03.366Z,8.40
2019-05-11T09:45:08.243Z,7.20
2019-05-11T09:46:12.951Z,5.97
2019-05-11T09:47:18.985Z,4.20
2019-05-11T09:48:23.638Z,4.83
2019-05-11T09:49:43.375Z,7.97
2019-05-11T09:50:34.345Z,8.07
2019-05-11T09:51:39.288Z,5.47
2019-05-11T09:52:43.857Z,9.77
2019-05-11T09:53:48.574Z,6.63
2019-05-11T09:54:53.279Z,8.53
2019-05-11T09:55:58.750Z,9.53
2019-05-11T09:57:03.443Z,8.43
2019-05-11T09:58:08.577Z,9.23
2019-05-11T09:59:13.268Z,5.53
2019-05-11T10:00:18.122Z,5.13
2019-05-11T10:01:22.597Z,7.50
2019-05-11T10:02:28.035Z,6.27
2019-05-11T10:03:32.666Z,5.97
2019-05-11T10:04:38.175Z,5.33
2019-05-11T10:05:42.857Z,8.83
2019-05-11T10:06:48.116Z,7.67
2019-05-11T10:07:52.937Z,7.30
2019-05-11T10:09:00.200Z,8.43
2019-05-11T10:10:05.333Z,6.53
2019-05-11T10:11:09.880Z,6.03
2019-05-11T10:12:14.399Z,6.80
2019-05-11T10:13:18.880Z,6.93
2019-05-11T10:14:23.405Z,6.63
2019-05-11T10:15:28.135Z,9.87
2019-05-11T10:16:32.768Z,6.37
2019-05-11T10:17:38.293Z,6.47
2019-05-11T10:18:43.161Z,5.70
2019-05-11T10:19:49.695Z,6.83
2019-05-11T10:20:54.380Z,10.97
2019-05-11T10:21:58.922Z,9.60
2019-05-11T10:23:03.425Z,5.93
2019-05-11T10:24:10.017Z,8.13
2019-05-11T10:25:14.694Z,6.30
2019-05-11T10:26:19.372Z,6.27
2019-05-11T10:27:23.895Z,4.13
2019-05-11T10:28:28.578Z,7.20
2019-05-11T10:29:34.022Z,7.57
2019-05-11T10:30:38.781Z,11.27
2019-05-11T10:31:43.308Z,9.67
2019-05-11T10:32:48.518Z,6.00
2019-05-11T10:33:53.181Z,5.33
2019-05-11T10:34:58.402Z,5.57
2019-05-11T10:36:03.359Z,9.30
2019-05-11T10:37:08.637Z,7.60
2019-05-11T10:38:13.233Z,7.03
2019-05-11T10:39:18.722Z,5.23
2019-05-11T10:40:23.400Z,4.20
2019-05-11T10:41:28.591Z,6.63
2019-05-11T10:42:33.218Z,6.63
2019-05-11T10:43:38.302Z,5.30
2019-05-11T10:44:43.366Z,8.93
2019-05-11T10:45:48.483Z,7.93
2019-05-11T10:46:53.202Z,6.50
2019-05-11T10:48:00.929Z,7.60
2019-05-11T10:49:08.016Z,4.73
2019-05-11T10:50:12.867Z,5.50
2019-05-11T10:51:18.416Z,6.10
2019-05-11T10:52:23.179Z,8.33
2019-05-11T10:53:27.981Z,7.27
2019-05-11T10:54:32.635Z,8.53
2019-05-11T10:55:38.840Z,8.90
2019-05-11T10:56:43.461Z,10.10
2019-05-11T10:57:48.791Z,6.50
2019-05-11T10:58:53.488Z,6.00
2019-05-11T10:59:58.150Z,9.23
2019-05-11T11:01:02.726Z,8.90
2019-05-11T11:02:08.055Z,8.10
2019-05-11T11:03:12.799Z,5.50
2019-05-11T11:04:18.342Z,5.73
2019-05-11T11:05:23.206Z,7.37
2019-05-11T11:06:28.285Z,6.40
2019-05-11T11:07:32.971Z,6.23
2019-05-11T11:08:38.281Z,7.60
2019-05-11T11:09:43.069Z,7.20
2019-05-11T11:10:48.322Z,6.70
2019-05-11T11:11:53.100Z,7.40
2019-05-11T11:12:57.864Z,4.87
2019-05-11T11:14:02.569Z,6.73
2019-05-11T11:15:07.809Z,8.10
2019-05-11T11:16:12.480Z,8.20
2019-05-11T11:17:19.043Z,7.23
2019-05-11T11:18:23.292Z,8.00
2019-05-11T11:19:28.946Z,5.70
2019-05-11T11:20:33.877Z,6.83
2019-05-11T11:21:38.564Z,8.07
2019-05-11T11:22:44.346Z,7.00
2019-05-11T11:23:49.064Z,9.13
2019-05-11T11:24:53.968Z,5.73
2019-05-11T11:25:58.654Z,7.27
2019-05-11T11:27:03.202Z,4.97
2019-05-11T11:28:08.480Z,6.93
2019-05-11T11:29:13.849Z,6.87
2019-05-11T11:30:19.448Z,4.93
2019-05-11T11:31:24.023Z,7.93
2019-05-11T11:32:28.510Z,5.83
2019-05-11T11:33:33.050Z,7.13
2019-05-11T11:34:38.355Z,5.77
2019-05-11T11:35:43.068Z,6.73
2019-05-11T11:36:48.265Z,5.23
2019-05-11T11:37:52.920Z,5.60
2019-05-11T11:38:58.371Z,7.67
2019-05-11T11:40:03.128Z,4.67
2019-05-11T11:41:07.810Z,6.87
2019-05-11T11:42:12.496Z,7.27
2019-05-11T11:43:18.053Z,7.03
2019-05-11T11:44:22.737Z,5.43
2019-05-11T11:45:28.811Z,5.23
2019-05-11T11:46:46.710Z,6.87
2019-05-11T11:47:39.854Z,6.60
2019-05-11T11:48:44.380Z,5.70
2019-05-11T11:49:48.941Z,5.80
2019-05-11T11:50:53.418Z,9.28
2019-05-11T11:51:58.080Z,4.72
2019-05-11T11:53:02.781Z,3.85
2019-05-11T11:54:08.788Z,7.22
2019-05-11T11:55:13.568Z,7.45
2019-05-11T11:56:19.241Z,5.50
2019-05-11T11:57:24.055Z,8.45
2019-05-11T11:58:28.568Z,3.50
2019-05-11T11:59:33.100Z,3.62
2019-05-11T12:00:39.049Z,4.10
2019-05-11T12:01:43.903Z,4.40
2019-05-11T12:02:48.819Z,4.90
2019-05-11T12:03:53.368Z,6.67
2019-05-11T12:04:58.339Z,5.55
2019-05-11T12:06:03.036Z,5.87
2019-05-11T12:07:08.473Z,5.00
2019-05-11T12:08:13.262Z,4.58
2019-05-11T12:09:18.333Z,3.83
2019-05-11T12:10:22.883Z,3.67
2019-05-11T12:11:27.986Z,5.85
2019-05-11T12:12:32.717Z,5.05
2019-05-11T12:13:38.387Z,3.35
2019-05-11T12:14:43.230Z,5.97
2019-05-11T12:15:48.356Z,4.08
2019-05-11T12:17:06.782Z,4.92
2019-05-11T12:17:59.272Z,4.35
2019-05-11T12:19:05.378Z,5.33
2019-05-11T12:20:10.590Z,5.60
2019-05-11T12:21:15.418Z,5.62
2019-05-11T12:22:19.995Z,5.25
2019-05-11T12:23:24.555Z,6.35
2019-05-11T12:24:29.123Z,5.12
2019-05-11T12:25:37.314Z,3.85
2019-05-11T12:26:40.184Z,5.08
2019-05-11T12:27:44.735Z,5.40
2019-05-11T12:28:49.319Z,5.05
2019-05-11T12:29:53.801Z,4.37
2019-05-11T12:30:58.645Z,4.92
2019-05-11T12:32:07.959Z,4.03
2019-05-11T12:33:11.718Z,4.50
2019-05-11T12:34:17.932Z,5.33
2019-05-11T12:35:22.461Z,5.33
2019-05-11T12:36:28.085Z,5.78
2019-05-11T12:37:32.780Z,5.85
2019-05-11T12:38:38.184Z,6.33
2019-05-11T12:39:43.120Z,4.72
2019-05-11T12:40:47.842Z,7.00
2019-05-11T12:41:52.527Z,4.28
2019-05-11T12:42:59.083Z,3.85
2019-05-11T12:44:03.233Z,6.67
2019-05-11T12:45:08.384Z,5.05
2019-05-11T12:46:12.923Z,5.20
2019-05-11T12:47:22.239Z,6.83
2019-05-11T12:48:23.836Z,8.35
2019-05-11T12:49:28.929Z,5.00
2019-05-11T12:50:33.702Z,4.40
2019-05-11T12:51:38.421Z,5.10
2019-05-11T12:52:43.064Z,7.05
2019-05-11T12:53:47.871Z,3.58
2019-05-11T12:54:52.456Z,4.55
2019-05-11T12:55:58.899Z,4.97
2019-05-11T12:57:03.221Z,5.65
2019-05-11T12:58:08.536Z,8.63
2019-05-11T12:59:13.245Z,3.87
2019-05-11T13:00:18.152Z,5.50
2019-05-11T13:01:22.642Z,3.77
2019-05-11T13:02:28.027Z,4.00
2019-05-11T13:03:32.693Z,4.42
2019-05-11T13:04:38.529Z,4.62
2019-05-11T13:05:43.115Z,3.27
2019-05-11T13:06:47.991Z,5.62
2019-05-11T13:07:52.655Z,5.33
2019-05-11T13:08:58.761Z,6.20
2019-05-11T13:10:03.303Z,4.97
2019-05-11T13:11:08.326Z,4.75
2019-05-11T13:12:12.888Z,5.22
2019-05-11T13:13:18.194Z,3.37
2019-05-11T13:14:22.905Z,5.10
2019-05-11T13:15:28.139Z,4.67
2019-05-11T13:16:32.828Z,4.08
2019-05-11T13:17:40.168Z,4.50
2019-05-11T13:18:43.477Z,4.25
2019-05-11T13:19:48.103Z,3.65
2019-05-11T13:20:52.609Z,3.75
2019-05-11T13:21:58.938Z,4.75
2019-05-11T13:23:03.421Z,6.40
2019-05-11T13:24:08.479Z,5.00
2019-05-11T13:25:13.444Z,4.80
2019-05-11T13:26:18.249Z,6.33
2019-05-11T13:27:22.787Z,4.62
2019-05-11T13:28:28.414Z,7.25
2019-05-11T13:29:33.173Z,4.90
2019-05-11T13:30:38.213Z,6.35
2019-05-11T13:31:42.995Z,4.42
2019-05-11T13:32:48.992Z,3.65
2019-05-11T13:33:53.769Z,4.92
2019-05-11T13:34:58.481Z,6.78
2019-05-11T13:36:03.120Z,5.40
2019-05-11T13:37:08.165Z,4.62
2019-05-11T13:38:12.835Z,6.03
2019-05-11T13:39:18.054Z,5.10
2019-05-11T13:40:22.824Z,6.33
2019-05-11T13:41:28.089Z,3.22
2019-05-11T13:42:32.882Z,4.40
2019-05-11T13:43:38.566Z,5.65
2019-05-11T13:44:43.322Z,6.42
2019-05-11T13:45:47.984Z,5.35
2019-05-11T13:46:52.626Z,5.83
2019-05-11T13:47:59.165Z,5.65
2019-05-11T13:49:03.364Z,3.52
2019-05-11T13:50:08.185Z,5.97
2019-05-11T13:51:12.729Z,3.90
2019-05-11T13:52:17.993Z,4.15
2019-05-11T13:53:23.001Z,6.25
2019-05-11T13:54:29.644Z,4.65
2019-05-11T13:55:33.767Z,5.37
2019-05-11T13:56:38.430Z,4.62
2019-05-11T13:57:42.908Z,5.45
2019-05-11T13:58:48.877Z,4.58
2019-05-11T13:59:53.500Z,5.08
2019-05-11T14:00:58.518Z,5.15
2019-05-11T14:02:03.385Z,5.80
2019-05-11T14:03:09.009Z,5.62
2019-05-11T14:04:13.732Z,8.45
2019-05-11T14:05:18.375Z,6.85
2019-05-11T14:06:22.906Z,6.45
2019-05-11T14:07:27.665Z,3.95